sensor_id;sensor_type;location;lat;lon;timestamp;pressure;altitude;pressure_sealevel;temperature;humidity
35507;BME280;36461;52.018;21.036;2024-02-04T00:02:23;99710.82;;;6.78;83.71
35507;BME280;36461;52.018;21.036;2024-02-04T00:04:52;99708.13;;;6.69;83.52
35507;BME280;36461;52.018;21.036;2024-02-04T00:07:21;99710.27;;;6.60;83.58
35507;BME280;36461;52.018;21.036;2024-02-04T00:09:50;99708.88;;;6.54;83.60
35507;BME280;36461;52.018;21.036;2024-02-04T00:12:18;99707.73;;;6.46;83.48
35507;BME280;36461;52.018;21.036;2024-02-04T00:14:47;99711.67;;;6.39;83.62
35507;BME280;36461;52.018;21.036;2024-02-04T00:17:18;99718.00;;;6.34;83.44
35507;BME280;36461;52.018;21.036;2024-02-04T00:19:46;99716.35;;;6.31;83.56
35507;BME280;36461;52.018;21.036;2024-02-04T00:22:14;99719.92;;;6.32;83.66
35507;BME280;36461;52.018;21.036;2024-02-04T00:24:46;99722.07;;;6.36;83.81
35507;BME280;36461;52.018;21.036;2024-02-04T00:27:15;99718.96;;;6.43;83.90
35507;BME280;36461;52.018;21.036;2024-02-04T00:29:43;99717.40;;;6.50;84.00
35507;BME280;36461;52.018;21.036;2024-02-04T00:32:11;99708.80;;;6.58;84.23
35507;BME280;36461;52.018;21.036;2024-02-04T00:34:39;99704.17;;;6.63;84.17
35507;BME280;36461;52.018;21.036;2024-02-04T00:37:08;99696.04;;;6.65;84.14
35507;BME280;36461;52.018;21.036;2024-02-04T00:39:36;99695.65;;;6.67;84.33
35507;BME280;36461;52.018;21.036;2024-02-04T00:42:04;99691.41;;;6.65;84.49
35507;BME280;36461;52.018;21.036;2024-02-04T00:44:33;99690.84;;;6.60;84.41
35507;BME280;36461;52.018;21.036;2024-02-04T00:47:01;99684.19;;;6.52;84.42
35507;BME280;36461;52.018;21.036;2024-02-04T00:49:29;99690.71;;;6.46;84.87
35507;BME280;36461;52.018;21.036;2024-02-04T00:51:58;99695.83;;;6.41;84.71
35507;BME280;36461;52.018;21.036;2024-02-04T00:54:26;99695.63;;;6.35;84.96
35507;BME280;36461;52.018;21.036;2024-02-04T00:56:54;99696.05;;;6.31;85.25
35507;BME280;36461;52.018;21.036;2024-02-04T00:59:23;99690.14;;;6.28;85.30
35507;BME280;36461;52.018;21.036;2024-02-04T01:01:51;99683.09;;;6.21;85.34
35507;BME280;36461;52.018;21.036;2024-02-04T01:04:19;99687.73;;;6.15;85.35
35507;BME280;36461;52.018;21.036;2024-02-04T01:06:48;99686.31;;;6.09;85.71
35507;BME280;36461;52.018;21.036;2024-02-04T01:09:28;99681.01;;;6.08;85.98
35507;BME280;36461;52.018;21.036;2024-02-04T01:11:57;99675.23;;;6.06;86.02
35507;BME280;36461;52.018;21.036;2024-02-04T01:14:26;99678.73;;;6.03;86.15
35507;BME280;36461;52.018;21.036;2024-02-04T01:16:54;99680.16;;;6.01;86.28
35507;BME280;36461;52.018;21.036;2024-02-04T01:19:22;99681.55;;;6.00;86.58
35507;BME280;36461;52.018;21.036;2024-02-04T01:21:50;99688.44;;;5.99;86.69
35507;BME280;36461;52.018;21.036;2024-02-04T01:24:18;99687.11;;;5.96;86.71
35507;BME280;36461;52.018;21.036;2024-02-04T01:26:47;99686.44;;;5.96;86.74
35507;BME280;36461;52.018;21.036;2024-02-04T01:29:15;99685.98;;;5.94;86.87
35507;BME280;36461;52.018;21.036;2024-02-04T01:31:43;99688.95;;;5.92;86.84
35507;BME280;36461;52.018;21.036;2024-02-04T01:34:11;99688.81;;;5.90;86.93
35507;BME280;36461;52.018;21.036;2024-02-04T01:36:40;99691.05;;;5.90;86.86
35507;BME280;36461;52.018;21.036;2024-02-04T01:39:08;99690.64;;;5.93;87.30
35507;BME280;36461;52.018;21.036;2024-02-04T01:41:39;99688.13;;;5.97;87.45
35507;BME280;36461;52.018;21.036;2024-02-04T01:44:07;99688.61;;;5.99;87.56
35507;BME280;36461;52.018;21.036;2024-02-04T01:46:35;99687.04;;;6.01;87.44
35507;BME280;36461;52.018;21.036;2024-02-04T01:49:03;99686.83;;;6.03;87.77
35507;BME280;36461;52.018;21.036;2024-02-04T01:51:32;99689.23;;;6.03;87.60
35507;BME280;36461;52.018;21.036;2024-02-04T01:54:00;99682.62;;;6.06;87.74
35507;BME280;36461;52.018;21.036;2024-02-04T01:56:29;99673.79;;;6.09;87.72
35507;BME280;36461;52.018;21.036;2024-02-04T01:58:59;99667.19;;;6.11;87.66
35507;BME280;36461;52.018;21.036;2024-02-04T02:01:27;99669.86;;;6.15;87.72
35507;BME280;36461;52.018;21.036;2024-02-04T02:03:56;99670.13;;;6.17;87.69
35507;BME280;36461;52.018;21.036;2024-02-04T02:06:25;99666.94;;;6.21;87.83
35507;BME280;36461;52.018;21.036;2024-02-04T02:08:55;99665.13;;;6.25;87.57
35507;BME280;36461;52.018;21.036;2024-02-04T02:11:42;99670.01;;;6.29;87.48
35507;BME280;36461;52.018;21.036;2024-02-04T02:14:13;99669.83;;;6.29;87.20
35507;BME280;36461;52.018;21.036;2024-02-04T02:16:45;99676.21;;;6.29;87.12
35507;BME280;36461;52.018;21.036;2024-02-04T02:19:40;99673.55;;;6.31;86.87
35507;BME280;36461;52.018;21.036;2024-02-04T02:22:28;99669.73;;;6.33;86.89
35507;BME280;36461;52.018;21.036;2024-02-04T02:25:02;99668.99;;;6.35;86.76
35507;BME280;36461;52.018;21.036;2024-02-04T02:27:33;99670.89;;;6.34;86.41
35507;BME280;36461;52.018;21.036;2024-02-04T02:30:01;99666.25;;;6.34;86.53
35507;BME280;36461;52.018;21.036;2024-02-04T02:32:29;99670.85;;;6.36;86.55
35507;BME280;36461;52.018;21.036;2024-02-04T02:34:57;99671.90;;;6.35;86.27
35507;BME280;36461;52.018;21.036;2024-02-04T02:40:22;99663.25;;;6.37;85.86
35507;BME280;36461;52.018;21.036;2024-02-04T02:42:52;99669.59;;;6.38;85.84
35507;BME280;36461;52.018;21.036;2024-02-04T02:45:22;99657.52;;;6.39;85.71
35507;BME280;36461;52.018;21.036;2024-02-04T02:47:54;99657.84;;;6.41;85.61
35507;BME280;36461;52.018;21.036;2024-02-04T02:50:23;99662.99;;;6.42;85.39
35507;BME280;36461;52.018;21.036;2024-02-04T02:52:52;99665.55;;;6.42;85.17
35507;BME280;36461;52.018;21.036;2024-02-04T02:55:20;99666.47;;;6.39;85.07
35507;BME280;36461;52.018;21.036;2024-02-04T02:57:48;99671.84;;;6.37;84.93
35507;BME280;36461;52.018;21.036;2024-02-04T03:00:16;99669.67;;;6.35;84.97
35507;BME280;36461;52.018;21.036;2024-02-04T03:02:45;99674.36;;;6.33;84.90
35507;BME280;36461;52.018;21.036;2024-02-04T03:05:18;99676.79;;;6.33;84.99
35507;BME280;36461;52.018;21.036;2024-02-04T03:07:46;99675.54;;;6.34;84.90
35507;BME280;36461;52.018;21.036;2024-02-04T03:10:15;99669.70;;;6.34;84.93
35507;BME280;36461;52.018;21.036;2024-02-04T03:12:43;99667.92;;;6.36;84.89
35507;BME280;36461;52.018;21.036;2024-02-04T03:15:11;99658.77;;;6.37;84.87
35507;BME280;36461;52.018;21.036;2024-02-04T03:17:42;99663.55;;;6.39;84.87
35507;BME280;36461;52.018;21.036;2024-02-04T03:20:11;99665.09;;;6.40;84.47
35507;BME280;36461;52.018;21.036;2024-02-04T03:22:40;99668.44;;;6.42;84.32
35507;BME280;36461;52.018;21.036;2024-02-04T03:25:08;99667.71;;;6.44;84.26
35507;BME280;36461;52.018;21.036;2024-02-04T03:27:37;99669.05;;;6.45;84.30
35507;BME280;36461;52.018;21.036;2024-02-04T03:30:05;99677.81;;;6.46;84.12
35507;BME280;36461;52.018;21.036;2024-02-04T03:32:34;99678.02;;;6.44;83.85
35507;BME280;36461;52.018;21.036;2024-02-04T03:35:03;99673.63;;;6.42;83.71
35507;BME280;36461;52.018;21.036;2024-02-04T03:37:32;99674.73;;;6.39;83.33
35507;BME280;36461;52.018;21.036;2024-02-04T03:40:00;99674.95;;;6.37;83.31
35507;BME280;36461;52.018;21.036;2024-02-04T03:42:29;99673.57;;;6.37;83.16
35507;BME280;36461;52.018;21.036;2024-02-04T03:44:58;99680.62;;;6.37;82.90
35507;BME280;36461;52.018;21.036;2024-02-04T03:47:26;99687.30;;;6.38;82.96
35507;BME280;36461;52.018;21.036;2024-02-04T03:49:54;99692.30;;;6.37;82.62
35507;BME280;36461;52.018;21.036;2024-02-04T03:52:22;99684.73;;;6.37;82.84
35507;BME280;36461;52.018;21.036;2024-02-04T03:54:51;99681.17;;;6.36;82.49
35507;BME280;36461;52.018;21.036;2024-02-04T03:57:19;99680.55;;;6.33;82.55
35507;BME280;36461;52.018;21.036;2024-02-04T03:59:47;99674.05;;;6.32;82.47
35507;BME280;36461;52.018;21.036;2024-02-04T04:02:16;99682.67;;;6.31;82.05
35507;BME280;36461;52.018;21.036;2024-02-04T04:04:44;99693.77;;;6.28;82.19
35507;BME280;36461;52.018;21.036;2024-02-04T04:07:16;99699.86;;;6.24;81.94
35507;BME280;36461;52.018;21.036;2024-02-04T04:09:44;99690.30;;;6.22;81.39
35507;BME280;36461;52.018;21.036;2024-02-04T04:12:12;99686.21;;;6.20;81.61
35507;BME280;36461;52.018;21.036;2024-02-04T04:14:41;99683.37;;;6.17;81.67
35507;BME280;36461;52.018;21.036;2024-02-04T04:17:09;99679.96;;;6.16;81.47
35507;BME280;36461;52.018;21.036;2024-02-04T04:19:38;99690.64;;;6.14;81.38
35507;BME280;36461;52.018;21.036;2024-02-04T04:22:07;99704.91;;;6.14;81.23
35507;BME280;36461;52.018;21.036;2024-02-04T04:24:35;99699.56;;;6.15;81.25
35507;BME280;36461;52.018;21.036;2024-02-04T04:27:06;99705.34;;;6.18;81.40
35507;BME280;36461;52.018;21.036;2024-02-04T04:29:34;99700.16;;;6.19;81.17
35507;BME280;36461;52.018;21.036;2024-02-04T04:32:02;99698.95;;;6.19;81.07
35507;BME280;36461;52.018;21.036;2024-02-04T04:34:30;99700.96;;;6.21;80.98
35507;BME280;36461;52.018;21.036;2024-02-04T04:36:59;99688.42;;;6.21;80.85
35507;BME280;36461;52.018;21.036;2024-02-04T04:39:27;99693.22;;;6.21;80.70
35507;BME280;36461;52.018;21.036;2024-02-04T04:41:56;99686.88;;;6.21;80.67
35507;BME280;36461;52.018;21.036;2024-02-04T04:44:24;99683.98;;;6.19;80.40
35507;BME280;36461;52.018;21.036;2024-02-04T04:46:52;99679.02;;;6.18;80.71
35507;BME280;36461;52.018;21.036;2024-02-04T04:49:21;99673.55;;;6.18;80.59
35507;BME280;36461;52.018;21.036;2024-02-04T04:51:49;99675.63;;;6.17;80.50
35507;BME280;36461;52.018;21.036;2024-02-04T04:54:17;99673.90;;;6.17;80.51
35507;BME280;36461;52.018;21.036;2024-02-04T04:56:45;99681.45;;;6.18;80.37
35507;BME280;36461;52.018;21.036;2024-02-04T04:59:15;99699.48;;;6.18;80.22
35507;BME280;36461;52.018;21.036;2024-02-04T05:01:50;99711.20;;;6.17;80.19
35507;BME280;36461;52.018;21.036;2024-02-04T05:04:18;99708.23;;;6.12;79.97
35507;BME280;36461;52.018;21.036;2024-02-04T05:06:47;99706.83;;;6.06;80.05
35507;BME280;36461;52.018;21.036;2024-02-04T05:09:15;99700.42;;;6.01;80.06
35507;BME280;36461;52.018;21.036;2024-02-04T05:11:44;99703.93;;;5.97;80.34
35507;BME280;36461;52.018;21.036;2024-02-04T05:14:12;99707.58;;;5.95;80.44
35507;BME280;36461;52.018;21.036;2024-02-04T05:16:40;99708.44;;;5.95;80.71
35507;BME280;36461;52.018;21.036;2024-02-04T05:19:12;99699.38;;;5.94;80.93
35507;BME280;36461;52.018;21.036;2024-02-04T05:21:40;99711.86;;;5.96;81.18
35507;BME280;36461;52.018;21.036;2024-02-04T05:24:09;99717.98;;;5.99;81.53
35507;BME280;36461;52.018;21.036;2024-02-04T05:26:37;99730.05;;;5.97;81.88
35507;BME280;36461;52.018;21.036;2024-02-04T05:29:05;99713.25;;;5.88;82.76
35507;BME280;36461;52.018;21.036;2024-02-04T05:31:33;99717.44;;;5.78;83.19
35507;BME280;36461;52.018;21.036;2024-02-04T05:34:05;99726.20;;;5.63;83.32
35507;BME280;36461;52.018;21.036;2024-02-04T05:36:35;99735.82;;;5.46;83.18
35507;BME280;36461;52.018;21.036;2024-02-04T05:39:13;99728.95;;;5.31;83.16
35507;BME280;36461;52.018;21.036;2024-02-04T05:41:42;99734.36;;;5.17;83.07
35507;BME280;36461;52.018;21.036;2024-02-04T05:44:11;99736.71;;;5.11;83.51
35507;BME280;36461;52.018;21.036;2024-02-04T05:46:39;99741.63;;;5.06;83.66
35507;BME280;36461;52.018;21.036;2024-02-04T05:49:08;99747.75;;;4.99;83.58
35507;BME280;36461;52.018;21.036;2024-02-04T05:51:38;99748.11;;;4.90;83.10
35507;BME280;36461;52.018;21.036;2024-02-04T05:54:08;99752.08;;;4.79;83.15
35507;BME280;36461;52.018;21.036;2024-02-04T05:56:36;99757.19;;;4.72;83.08
35507;BME280;36461;52.018;21.036;2024-02-04T05:59:04;99752.96;;;4.69;83.41
35507;BME280;36461;52.018;21.036;2024-02-04T06:01:33;99746.19;;;4.63;83.57
35507;BME280;36461;52.018;21.036;2024-02-04T06:04:02;99750.35;;;4.61;83.69
35507;BME280;36461;52.018;21.036;2024-02-04T06:06:30;99749.19;;;4.59;83.43
35507;BME280;36461;52.018;21.036;2024-02-04T06:08:59;99746.50;;;4.56;83.68
35507;BME280;36461;52.018;21.036;2024-02-04T06:11:27;99742.75;;;4.55;83.73
35507;BME280;36461;52.018;21.036;2024-02-04T06:13:55;99743.12;;;4.54;83.97
35507;BME280;36461;52.018;21.036;2024-02-04T06:16:23;99739.52;;;4.54;84.01
35507;BME280;36461;52.018;21.036;2024-02-04T06:18:51;99734.36;;;4.54;84.17
35507;BME280;36461;52.018;21.036;2024-02-04T06:21:24;99728.86;;;4.56;84.46
35507;BME280;36461;52.018;21.036;2024-02-04T06:23:52;99725.07;;;4.57;84.57
35507;BME280;36461;52.018;21.036;2024-02-04T06:26:20;99726.91;;;4.59;84.70
35507;BME280;36461;52.018;21.036;2024-02-04T06:28:49;99733.57;;;4.60;84.86
35507;BME280;36461;52.018;21.036;2024-02-04T06:31:19;99732.57;;;4.59;84.72
35507;BME280;36461;52.018;21.036;2024-02-04T06:33:47;99721.60;;;4.59;84.81
35507;BME280;36461;52.018;21.036;2024-02-04T06:36:16;99719.86;;;4.60;85.02
35507;BME280;36461;52.018;21.036;2024-02-04T06:38:44;99720.67;;;4.62;84.86
35507;BME280;36461;52.018;21.036;2024-02-04T06:41:12;99726.67;;;4.63;84.92
35507;BME280;36461;52.018;21.036;2024-02-04T06:43:41;99727.33;;;4.65;84.80
35507;BME280;36461;52.018;21.036;2024-02-04T06:46:09;99719.21;;;4.67;84.71
35507;BME280;36461;52.018;21.036;2024-02-04T06:48:38;99716.08;;;4.70;84.65
35507;BME280;36461;52.018;21.036;2024-02-04T06:51:06;99718.24;;;4.73;84.78
35507;BME280;36461;52.018;21.036;2024-02-04T06:53:34;99718.54;;;4.76;84.45
35507;BME280;36461;52.018;21.036;2024-02-04T06:56:03;99716.93;;;4.79;84.24
35507;BME280;36461;52.018;21.036;2024-02-04T06:58:31;99725.92;;;4.84;84.14
35507;BME280;36461;52.018;21.036;2024-02-04T07:01:00;99727.03;;;4.89;83.92
35507;BME280;36461;52.018;21.036;2024-02-04T07:03:28;99727.67;;;4.91;83.78
35507;BME280;36461;52.018;21.036;2024-02-04T07:05:58;99737.21;;;4.95;83.74
35507;BME280;36461;52.018;21.036;2024-02-04T07:08:27;99735.96;;;4.97;83.55
35507;BME280;36461;52.018;21.036;2024-02-04T07:10:55;99736.63;;;4.98;83.20
35507;BME280;36461;52.018;21.036;2024-02-04T07:13:27;99734.89;;;5.00;82.81
35507;BME280;36461;52.018;21.036;2024-02-04T07:15:55;99736.24;;;5.01;82.60
35507;BME280;36461;52.018;21.036;2024-02-04T07:18:24;99737.01;;;5.05;82.47
35507;BME280;36461;52.018;21.036;2024-02-04T07:20:52;99739.43;;;5.13;82.54
35507;BME280;36461;52.018;21.036;2024-02-04T07:23:20;99734.98;;;5.20;82.24
35507;BME280;36461;52.018;21.036;2024-02-04T07:25:49;99737.63;;;5.26;82.17
35507;BME280;36461;52.018;21.036;2024-02-04T07:28:17;99728.59;;;5.31;81.76
35507;BME280;36461;52.018;21.036;2024-02-04T07:30:45;99732.75;;;5.37;81.43
35507;BME280;36461;52.018;21.036;2024-02-04T07:33:14;99729.86;;;5.44;81.68
35507;BME280;36461;52.018;21.036;2024-02-04T07:35:42;99731.78;;;5.50;81.26
35507;BME280;36461;52.018;21.036;2024-02-04T07:38:10;99735.33;;;5.53;80.89
35507;BME280;36461;52.018;21.036;2024-02-04T07:40:39;99735.47;;;5.54;80.46
35507;BME280;36461;52.018;21.036;2024-02-04T07:43:07;99736.81;;;5.55;80.39
35507;BME280;36461;52.018;21.036;2024-02-04T07:45:35;99731.13;;;5.56;80.24
35507;BME280;36461;52.018;21.036;2024-02-04T07:48:04;99723.70;;;5.59;79.99
35507;BME280;36461;52.018;21.036;2024-02-04T07:50:32;99720.33;;;5.64;79.53
35507;BME280;36461;52.018;21.036;2024-02-04T07:53:00;99722.83;;;5.67;79.49
35507;BME280;36461;52.018;21.036;2024-02-04T07:55:29;99721.91;;;5.70;79.29
35507;BME280;36461;52.018;21.036;2024-02-04T07:57:57;99726.40;;;5.76;79.15
35507;BME280;36461;52.018;21.036;2024-02-04T08:00:25;99735.38;;;5.81;78.71
35507;BME280;36461;52.018;21.036;2024-02-04T08:02:55;99740.95;;;5.85;78.33
35507;BME280;36461;52.018;21.036;2024-02-04T08:05:23;99743.09;;;5.90;78.04
35507;BME280;36461;52.018;21.036;2024-02-04T08:07:51;99735.39;;;5.96;78.19
35507;BME280;36461;52.018;21.036;2024-02-04T08:10:20;99735.08;;;6.03;78.00
35507;BME280;36461;52.018;21.036;2024-02-04T08:12:48;99735.36;;;6.13;78.14
35507;BME280;36461;52.018;21.036;2024-02-04T08:15:19;99738.48;;;6.19;78.12
35507;BME280;36461;52.018;21.036;2024-02-04T08:17:48;99735.45;;;6.23;77.44
35507;BME280;36461;52.018;21.036;2024-02-04T08:20:18;99727.23;;;6.29;77.51
35507;BME280;36461;52.018;21.036;2024-02-04T08:22:46;99733.48;;;6.33;77.40
35507;BME280;36461;52.018;21.036;2024-02-04T08:25:14;99736.86;;;6.35;76.82
35507;BME280;36461;52.018;21.036;2024-02-04T08:27:43;99730.42;;;6.38;76.67
35507;BME280;36461;52.018;21.036;2024-02-04T08:30:11;99736.63;;;6.38;76.38
35507;BME280;36461;52.018;21.036;2024-02-04T08:32:40;99733.42;;;6.42;76.70
35507;BME280;36461;52.018;21.036;2024-02-04T08:35:09;99733.84;;;6.46;76.34
35507;BME280;36461;52.018;21.036;2024-02-04T08:37:37;99733.04;;;6.51;76.27
35507;BME280;36461;52.018;21.036;2024-02-04T08:40:07;99731.63;;;6.52;76.16
35507;BME280;36461;52.018;21.036;2024-02-04T08:42:35;99727.25;;;6.55;76.12
35507;BME280;36461;52.018;21.036;2024-02-04T08:45:05;99731.63;;;6.59;75.68
35507;BME280;36461;52.018;21.036;2024-02-04T08:47:33;99729.49;;;6.61;75.74
35507;BME280;36461;52.018;21.036;2024-02-04T08:50:02;99735.09;;;6.65;75.33
35507;BME280;36461;52.018;21.036;2024-02-04T08:52:31;99740.74;;;6.65;75.35
35507;BME280;36461;52.018;21.036;2024-02-04T08:54:59;99740.06;;;6.65;74.98
35507;BME280;36461;52.018;21.036;2024-02-04T08:57:28;99736.23;;;6.67;74.91
35507;BME280;36461;52.018;21.036;2024-02-04T08:59:56;99740.90;;;6.66;74.75
35507;BME280;36461;52.018;21.036;2024-02-04T09:02:25;99743.98;;;6.66;74.79
35507;BME280;36461;52.018;21.036;2024-02-04T09:04:53;99749.11;;;6.67;74.60
35507;BME280;36461;52.018;21.036;2024-02-04T09:07:22;99755.65;;;6.67;74.41
35507;BME280;36461;52.018;21.036;2024-02-04T09:09:51;99754.11;;;6.67;73.75
35507;BME280;36461;52.018;21.036;2024-02-04T09:12:19;99754.96;;;6.67;73.64
35507;BME280;36461;52.018;21.036;2024-02-04T09:14:47;99759.34;;;6.70;73.65
35507;BME280;36461;52.018;21.036;2024-02-04T09:17:16;99761.02;;;6.72;73.48
35507;BME280;36461;52.018;21.036;2024-02-04T09:19:44;99762.23;;;6.72;72.48
35507;BME280;36461;52.018;21.036;2024-02-04T09:22:13;99770.36;;;6.70;72.64
35507;BME280;36461;52.018;21.036;2024-02-04T09:24:41;99768.20;;;6.74;72.79
35507;BME280;36461;52.018;21.036;2024-02-04T09:27:09;99768.20;;;6.80;72.68
35507;BME280;36461;52.018;21.036;2024-02-04T09:29:38;99766.20;;;6.85;72.23
35507;BME280;36461;52.018;21.036;2024-02-04T09:32:06;99766.05;;;6.90;72.33
35507;BME280;36461;52.018;21.036;2024-02-04T09:34:36;99761.08;;;6.89;71.57
35507;BME280;36461;52.018;21.036;2024-02-04T09:37:05;99757.80;;;6.90;72.12
35507;BME280;36461;52.018;21.036;2024-02-04T09:39:33;99766.08;;;6.95;71.99
35507;BME280;36461;52.018;21.036;2024-02-04T09:42:02;99759.01;;;7.03;72.08
35507;BME280;36461;52.018;21.036;2024-02-04T09:44:32;99754.89;;;7.08;71.19
35507;BME280;36461;52.018;21.036;2024-02-04T09:47:01;99752.36;;;7.12;71.14
35507;BME280;36461;52.018;21.036;2024-02-04T09:49:30;99749.77;;;7.18;71.48
35507;BME280;36461;52.018;21.036;2024-02-04T09:52:06;99751.41;;;7.22;70.41
35507;BME280;36461;52.018;21.036;2024-02-04T09:54:50;99751.28;;;7.20;70.03
35507;BME280;36461;52.018;21.036;2024-02-04T09:57:19;99742.72;;;7.25;70.39
35507;BME280;36461;52.018;21.036;2024-02-04T09:59:47;99739.61;;;7.31;70.23
35507;BME280;36461;52.018;21.036;2024-02-04T10:02:17;99737.02;;;7.31;69.18
35507;BME280;36461;52.018;21.036;2024-02-04T10:04:49;99732.73;;;7.25;69.02
35507;BME280;36461;52.018;21.036;2024-02-04T10:07:18;99732.09;;;7.23;69.35
35507;BME280;36461;52.018;21.036;2024-02-04T10:09:46;99720.33;;;7.25;70.10
35507;BME280;36461;52.018;21.036;2024-02-04T10:12:15;99728.63;;;7.30;69.70
35507;BME280;36461;52.018;21.036;2024-02-04T10:14:44;99712.46;;;7.30;69.58
35507;BME280;36461;52.018;21.036;2024-02-04T10:17:15;99704.59;;;7.28;69.06
35507;BME280;36461;52.018;21.036;2024-02-04T10:19:43;99707.47;;;7.23;69.23
35507;BME280;36461;52.018;21.036;2024-02-04T10:22:12;99696.74;;;7.20;69.06
35507;BME280;36461;52.018;21.036;2024-02-04T10:24:40;99700.25;;;7.17;69.26
35507;BME280;36461;52.018;21.036;2024-02-04T10:27:11;99694.93;;;7.16;69.57
35507;BME280;36461;52.018;21.036;2024-02-04T10:29:52;99683.05;;;7.17;69.70
35507;BME280;36461;52.018;21.036;2024-02-04T10:32:22;99680.13;;;7.17;69.54
35507;BME280;36461;52.018;21.036;2024-02-04T10:34:52;99674.25;;;7.18;69.60
35507;BME280;36461;52.018;21.036;2024-02-04T10:37:21;99671.83;;;7.24;69.83
35507;BME280;36461;52.018;21.036;2024-02-04T10:39:49;99660.92;;;7.26;69.34
35507;BME280;36461;52.018;21.036;2024-02-04T10:42:29;99659.14;;;7.28;69.57
35507;BME280;36461;52.018;21.036;2024-02-04T10:44:58;99650.66;;;7.30;69.47
35507;BME280;36461;52.018;21.036;2024-02-04T10:47:32;99644.36;;;7.28;69.32
35507;BME280;36461;52.018;21.036;2024-02-04T10:50:02;99644.80;;;7.30;69.37
35507;BME280;36461;52.018;21.036;2024-02-04T10:52:36;99639.13;;;7.35;69.35
35507;BME280;36461;52.018;21.036;2024-02-04T10:55:08;99638.01;;;7.38;69.17
35507;BME280;36461;52.018;21.036;2024-02-04T10:57:38;99637.20;;;7.37;69.43
35507;BME280;36461;52.018;21.036;2024-02-04T11:00:08;99645.70;;;7.29;68.96
35507;BME280;36461;52.018;21.036;2024-02-04T11:02:42;99641.42;;;7.22;69.46
35507;BME280;36461;52.018;21.036;2024-02-04T11:05:15;99635.11;;;7.20;70.25
35507;BME280;36461;52.018;21.036;2024-02-04T11:07:45;99631.33;;;7.15;70.32
35507;BME280;36461;52.018;21.036;2024-02-04T11:10:14;99626.81;;;7.10;70.80
35507;BME280;36461;52.018;21.036;2024-02-04T11:12:44;99630.22;;;7.06;71.19
35507;BME280;36461;52.018;21.036;2024-02-04T11:15:14;99634.33;;;7.00;71.81
35507;BME280;36461;52.018;21.036;2024-02-04T11:18:13;99636.27;;;6.99;72.00
35507;BME280;36461;52.018;21.036;2024-02-04T11:24:18;99625.52;;;6.96;72.70
35507;BME280;36461;52.018;21.036;2024-02-04T11:26:50;99621.71;;;6.91;73.19
35507;BME280;36461;52.018;21.036;2024-02-04T11:29:18;99617.82;;;6.88;73.26
35507;BME280;36461;52.018;21.036;2024-02-04T11:31:47;99614.45;;;6.86;73.43
35507;BME280;36461;52.018;21.036;2024-02-04T11:34:16;99609.05;;;6.82;73.94
35507;BME280;36461;52.018;21.036;2024-02-04T11:36:45;99606.81;;;6.82;74.35
35507;BME280;36461;52.018;21.036;2024-02-04T11:39:14;99613.70;;;6.77;74.45
35507;BME280;36461;52.018;21.036;2024-02-04T11:41:50;99616.91;;;6.66;74.83
35507;BME280;36461;52.018;21.036;2024-02-04T11:44:26;99621.45;;;6.58;75.54
35507;BME280;36461;52.018;21.036;2024-02-04T11:46:54;99618.12;;;6.54;75.92
35507;BME280;36461;52.018;21.036;2024-02-04T11:49:25;99610.77;;;6.52;76.35
35507;BME280;36461;52.018;21.036;2024-02-04T11:51:55;99609.20;;;6.53;76.75
35507;BME280;36461;52.018;21.036;2024-02-04T11:54:25;99598.99;;;6.55;77.06
35507;BME280;36461;52.018;21.036;2024-02-04T11:56:54;99584.73;;;6.55;77.40
35507;BME280;36461;52.018;21.036;2024-02-04T11:59:25;99580.67;;;6.53;77.48
35507;BME280;36461;52.018;21.036;2024-02-04T12:01:57;99576.81;;;6.56;77.81
35507;BME280;36461;52.018;21.036;2024-02-04T12:04:27;99567.46;;;6.58;78.10
35507;BME280;36461;52.018;21.036;2024-02-04T12:06:57;99567.80;;;6.52;78.38
35507;BME280;36461;52.018;21.036;2024-02-04T12:09:26;99562.05;;;6.49;78.61
35507;BME280;36461;52.018;21.036;2024-02-04T12:11:55;99559.91;;;6.52;78.96
35507;BME280;36461;52.018;21.036;2024-02-04T12:14:23;99559.20;;;6.59;79.17
35507;BME280;36461;52.018;21.036;2024-02-04T12:16:52;99547.20;;;6.57;79.10
35507;BME280;36461;52.018;21.036;2024-02-04T12:19:21;99551.63;;;6.52;79.31
35507;BME280;36461;52.018;21.036;2024-02-04T12:21:49;99546.43;;;6.48;79.53
35507;BME280;36461;52.018;21.036;2024-02-04T12:24:18;99545.10;;;6.47;80.05
35507;BME280;36461;52.018;21.036;2024-02-04T12:26:47;99543.13;;;6.49;80.09
35507;BME280;36461;52.018;21.036;2024-02-04T12:29:16;99534.37;;;6.55;79.95
35507;BME280;36461;52.018;21.036;2024-02-04T12:31:44;99530.83;;;6.65;80.07
35507;BME280;36461;52.018;21.036;2024-02-04T12:34:13;99526.60;;;6.74;80.19
35507;BME280;36461;52.018;21.036;2024-02-04T12:36:42;99524.38;;;6.73;80.13
35507;BME280;36461;52.018;21.036;2024-02-04T12:39:14;99521.27;;;6.68;80.17
35507;BME280;36461;52.018;21.036;2024-02-04T12:41:42;99518.19;;;6.73;80.29
35507;BME280;36461;52.018;21.036;2024-02-04T12:44:10;99516.23;;;6.81;80.44
35507;BME280;36461;52.018;21.036;2024-02-04T12:46:39;99516.86;;;6.83;80.26
35507;BME280;36461;52.018;21.036;2024-02-04T12:49:07;99508.48;;;6.81;80.18
35507;BME280;36461;52.018;21.036;2024-02-04T12:51:36;99509.92;;;6.79;80.08
35507;BME280;36461;52.018;21.036;2024-02-04T12:54:08;99508.35;;;6.80;80.22
35507;BME280;36461;52.018;21.036;2024-02-04T12:56:50;99507.50;;;6.85;80.32
35507;BME280;36461;52.018;21.036;2024-02-04T12:59:33;99504.88;;;6.81;80.19
35507;BME280;36461;52.018;21.036;2024-02-04T13:02:06;99502.21;;;6.78;80.15
35507;BME280;36461;52.018;21.036;2024-02-04T13:04:40;99494.48;;;6.78;79.91
35507;BME280;36461;52.018;21.036;2024-02-04T13:07:12;99486.33;;;6.75;79.79
35507;BME280;36461;52.018;21.036;2024-02-04T13:09:43;99486.42;;;6.72;79.93
35507;BME280;36461;52.018;21.036;2024-02-04T13:12:14;99485.11;;;6.69;80.08
35507;BME280;36461;52.018;21.036;2024-02-04T13:14:43;99479.59;;;6.70;80.20
35507;BME280;36461;52.018;21.036;2024-02-04T13:17:13;99477.57;;;6.69;80.32
35507;BME280;36461;52.018;21.036;2024-02-04T13:19:41;99473.10;;;6.63;80.33